Time;durP1;ratioP1;P1;durP2;ratioP2;P2;SDS_P1;SDS_P2;PMS_P1;PMS_P2;Temp;Humidity;BMP_temperature;BMP_pressure;BME280_temperature;BME280_humidity;BME280_pressure;Samples;Min_cycle;Max_cycle;Signal;HPM_P1;HPM_P2
2022/02/08 00:01:44;;;;;;;15.35;4.15;;;6.50;95.90;;;;;;5037319;28;20037;-62
2022/02/08 00:04:09;;;;;;;14.00;3.85;;;6.50;95.90;;;;;;5033954;28;20057;-63
2022/02/08 00:06:42;;;;;;;11.07;3.00;;;6.50;95.90;;;;;;5046477;28;20484;-62
2022/02/08 00:09:07;;;;;;;9.98;3.47;;;6.40;96.10;;;;;;5042214;28;20045;-62
2022/02/08 00:11:33;;;;;;;12.32;3.30;;;6.50;96.00;;;;;;5049424;28;20068;-63
2022/02/08 00:13:58;;;;;;;14.45;3.30;;;6.50;96.10;;;;;;5043886;28;20117;-63
2022/02/08 00:16:24;;;;;;;13.93;4.53;;;6.40;96.10;;;;;;5034177;28;20076;-63
2022/02/08 00:18:49;;;;;;;12.85;2.88;;;6.40;96.10;;;;;;5039711;28;20075;-62
2022/02/08 00:21:15;;;;;;;9.13;3.55;;;6.40;96.10;;;;;;5040808;28;20032;-63
2022/02/08 00:23:41;;;;;;;12.45;2.90;;;6.40;96.10;;;;;;5046330;28;20460;-62
2022/02/08 00:26:06;;;;;;;12.27;3.42;;;6.40;96.20;;;;;;5043571;28;20032;-63
2022/02/08 00:28:32;;;;;;;8.30;3.38;;;6.40;96.20;;;;;;5053144;28;20066;-63
2022/02/08 00:30:57;;;;;;;7.45;2.95;;;6.40;96.30;;;;;;5051282;28;20080;-63
2022/02/08 00:33:23;;;;;;;11.02;2.58;;;6.30;96.40;;;;;;5051996;28;20021;-63
2022/02/08 00:35:48;;;;;;;16.65;3.58;;;6.40;96.40;;;;;;5041926;28;20084;-62
2022/02/08 00:38:14;;;;;;;14.43;2.80;;;6.40;96.40;;;;;;5033605;28;20014;-63
2022/02/08 00:40:39;;;;;;;8.30;2.80;;;6.40;96.40;;;;;;5041794;28;20611;-62
2022/02/08 00:43:07;;;;;;;9.98;3.15;;;6.40;96.50;;;;;;5034503;28;20037;-63
2022/02/08 00:45:48;;;;;;;10.63;2.65;;;6.40;96.50;;;;;;5040196;28;20102;-62
2022/02/08 00:48:26;;;;;;;10.32;3.08;;;6.40;96.50;;;;;;5053599;28;20628;-62
2022/02/08 00:50:51;;;;;;;7.22;2.88;;;6.40;96.50;;;;;;5048856;28;20040;-63
2022/02/08 00:53:18;;;;;;;11.68;2.92;;;6.50;96.50;;;;;;5044688;28;20389;-62
2022/02/08 00:55:44;;;;;;;13.88;2.83;;;6.50;96.50;;;;;;5037881;28;20033;-62
2022/02/08 00:58:09;;;;;;;12.82;3.35;;;6.50;96.50;;;;;;5053202;28;20017;-62
2022/02/08 01:00:35;;;;;;;12.77;3.20;;;6.60;96.50;;;;;;5029760;28;20477;-62
2022/02/08 01:03:06;;;;;;;8.02;2.70;;;6.60;96.40;;;;;;5047031;28;20869;-62
2022/02/08 01:05:33;;;;;;;10.52;3.80;;;6.60;96.40;;;;;;5052148;28;20124;-62
2022/02/08 01:07:59;;;;;;;13.18;2.65;;;6.60;96.40;;;;;;5041116;28;20033;-63
2022/02/08 01:10:25;;;;;;;12.77;3.13;;;6.60;96.40;;;;;;5038845;28;20033;-63
2022/02/08 01:12:51;;;;;;;8.80;2.70;;;6.60;96.30;;;;;;5052609;28;20025;-63
2022/02/08 01:15:18;;;;;;;12.90;3.10;;;6.60;96.30;;;;;;5048775;28;20028;-62
2022/02/08 01:17:47;;;;;;;11.45;2.60;;;6.60;96.30;;;;;;5034117;28;20053;-62
2022/02/08 01:20:18;;;;;;;11.10;3.03;;;6.60;96.40;;;;;;5036787;28;20044;-63
2022/02/08 01:22:44;;;;;;;16.70;3.53;;;6.60;96.40;;;;;;5052292;28;20033;-62
2022/02/08 01:25:18;;;;;;;8.30;2.35;;;6.60;96.30;;;;;;5047048;28;20053;-62
2022/02/08 01:27:50;;;;;;;10.93;2.77;;;6.70;96.30;;;;;;5032543;28;20108;-62
2022/02/08 01:30:28;;;;;;;7.13;2.30;;;6.70;96.30;;;;;;5033397;28;20315;-63
2022/02/08 01:35:44;;;;;;;9.55;2.50;;;6.70;96.30;;;;;;5044970;28;20103;-62
2022/02/08 01:38:16;;;;;;;10.73;3.03;;;6.70;96.30;;;;;;5043004;28;20033;-62
2022/02/08 01:41:20;;;;;;;7.22;2.85;;;6.70;96.20;;;;;;5041389;28;20028;-62
2022/02/08 01:46:47;;;;;;;6.63;2.20;;;6.80;96.10;;;;;;5051058;28;20044;-63
2022/02/08 01:49:31;;;;;;;6.88;2.30;;;6.80;96.10;;;;;;5050576;28;20033;-63
2022/02/08 01:51:58;;;;;;;7.55;2.00;;;6.80;96.10;;;;;;5031922;28;20385;-63
2022/02/08 01:54:24;;;;;;;8.15;2.58;;;6.80;96.00;;;;;;5032118;28;20030;-62
2022/02/08 01:56:51;;;;;;;11.75;2.80;;;6.80;96.00;;;;;;5040401;28;20033;-63
2022/02/08 01:59:18;;;;;;;13.93;3.00;;;6.70;96.20;;;;;;5032447;28;20032;-62
2022/02/08 02:01:44;;;;;;;7.65;2.45;;;6.70;95.90;;;;;;5040792;28;20056;-62
2022/02/08 02:04:09;;;;;;;9.68;2.47;;;6.70;96.00;;;;;;5031416;28;20521;-62
2022/02/08 02:06:37;;;;;;;11.00;2.13;;;6.70;95.90;;;;;;5041483;28;20045;-62
2022/02/08 02:09:04;;;;;;;8.90;2.40;;;6.70;95.90;;;;;;5031438;28;20481;-62
2022/02/08 02:11:30;;;;;;;7.05;2.13;;;6.60;95.90;;;;;;5031563;28;20034;-62
2022/02/08 02:13:56;;;;;;;13.00;2.75;;;6.60;95.90;;;;;;5031812;28;20018;-63
2022/02/08 02:16:33;;;;;;;9.18;2.60;;;6.60;95.90;;;;;;5017723;28;20104;-63
2022/02/08 02:18:59;;;;;;;8.40;2.58;;;6.60;95.90;;;;;;5031936;28;20030;-62
2022/02/08 02:21:24;;;;;;;8.88;2.25;;;6.60;95.90;;;;;;5045522;28;20040;-62
2022/02/08 02:23:51;;;;;;;10.13;2.45;;;6.50;95.90;;;;;;5051165;28;20020;-62
2022/02/08 02:26:16;;;;;;;10.80;2.50;;;6.50;95.90;;;;;;5019945;28;20087;-63
2022/02/08 02:28:42;;;;;;;8.57;2.15;;;6.50;95.90;;;;;;5037924;28;20380;-62
2022/02/08 02:31:08;;;;;;;6.78;2.10;;;6.50;95.90;;;;;;5035343;28;20052;-62
2022/02/08 02:33:33;;;;;;;13.85;2.55;;;6.50;95.90;;;;;;5031348;28;20071;-62
2022/02/08 02:35:59;;;;;;;8.18;2.65;;;6.50;96.00;;;;;;5042213;28;20025;-62
2022/02/08 02:38:25;;;;;;;10.48;2.63;;;6.40;96.00;;;;;;5037905;28;20071;-63
2022/02/08 02:40:52;;;;;;;9.57;2.30;;;6.50;96.00;;;;;;5042115;28;20082;-62
2022/02/08 02:43:18;;;;;;;11.15;2.53;;;6.40;95.90;;;;;;5049432;28;20028;-62
2022/02/08 02:45:44;;;;;;;7.70;2.10;;;6.50;96.00;;;;;;5044814;28;20037;-62
2022/02/08 02:48:10;;;;;;;9.68;2.80;;;6.50;96.00;;;;;;5040751;28;20029;-62
2022/02/08 02:50:36;;;;;;;10.20;2.60;;;6.50;96.00;;;;;;5042059;28;20037;-62
2022/02/08 02:53:01;;;;;;;8.13;2.13;;;6.50;96.00;;;;;;5015804;28;20022;-62
2022/02/08 02:55:32;;;;;;;10.70;2.75;;;6.50;96.00;;;;;;5048998;28;20029;-62
2022/02/08 02:57:57;;;;;;;8.27;2.58;;;6.50;96.00;;;;;;5047045;28;20025;-62
2022/02/08 03:00:39;;;;;;;9.05;2.50;;;6.50;96.20;;;;;;5034730;28;20428;-62
2022/02/08 03:19:13;;;;;;;12.45;2.42;;;6.60;95.80;;;;;;5034787;28;20068;-63
2022/02/08 03:21:38;;;;;;;10.20;2.78;;;6.60;95.80;;;;;;5029931;28;20076;-62
2022/02/08 03:24:04;;;;;;;15.07;3.53;;;6.70;95.80;;;;;;5030824;28;20021;-63
2022/02/08 03:26:30;;;;;;;10.70;2.38;;;6.70;95.80;;;;;;5030431;28;20037;-62
2022/02/08 03:28:55;;;;;;;9.60;2.25;;;6.60;95.80;;;;;;5030691;28;20022;-62
2022/02/08 03:31:20;;;;;;;10.23;2.70;;;6.70;95.80;;;;;;5033199;28;20029;-62
2022/02/08 03:33:46;;;;;;;10.65;2.95;;;6.60;95.80;;;;;;5035660;28;20014;-62
2022/02/08 03:36:12;;;;;;;8.43;2.22;;;6.70;95.90;;;;;;5034563;28;20075;-63
2022/02/08 03:38:42;;;;;;;12.45;2.45;;;6.70;95.80;;;;;;5033313;28;20528;-63
2022/02/08 03:41:09;;;;;;;9.63;3.60;;;6.70;95.90;;;;;;5034747;28;20287;-62
2022/02/08 03:43:38;;;;;;;9.25;2.33;;;6.70;95.80;;;;;;5046759;28;20104;-62
2022/02/08 03:46:07;;;;;;;12.45;2.40;;;6.70;95.80;;;;;;5054147;28;20060;-63
2022/02/08 03:48:36;;;;;;;8.10;2.58;;;6.70;95.70;;;;;;5044691;28;20032;-62
2022/02/08 03:51:14;;;;;;;7.38;2.55;;;6.70;95.70;;;;;;5034319;28;20068;-62
2022/02/08 03:53:43;;;;;;;12.85;3.55;;;6.70;95.70;;;;;;5034505;28;20113;-62
2022/02/08 03:56:10;;;;;;;7.22;2.88;;;6.70;95.60;;;;;;5034326;28;20116;-62
2022/02/08 03:58:36;;;;;;;12.13;2.50;;;6.70;95.80;;;;;;5039022;28;20446;-62
2022/02/08 04:01:35;;;;;;;10.77;3.15;;;6.70;95.60;;;;;;5054069;28;20112;-62
2022/02/08 04:04:22;;;;;;;11.60;2.92;;;6.70;95.60;;;;;;5039129;28;20092;-62
2022/02/08 04:06:46;;;;;;;9.13;2.65;;;6.80;95.60;;;;;;5033392;28;20037;-63
2022/02/08 04:09:12;;;;;;;11.90;2.80;;;6.70;95.40;;;;;;5043711;28;20036;-62
2022/02/08 04:11:51;;;;;;;8.85;2.63;;;6.70;95.40;;;;;;5038499;28;20025;-62
2022/02/08 04:14:30;;;;;;;13.73;3.60;;;6.70;95.40;;;;;;5043290;28;20040;-63
2022/02/08 04:17:02;;;;;;;9.32;4.28;;;6.70;95.40;;;;;;5053541;28;20480;-63
2022/02/08 04:19:34;;;;;;;7.43;2.33;;;6.80;95.40;;;;;;5044541;28;20033;-62
2022/02/08 04:38:39;;;;;;;8.52;2.47;;;6.80;95.10;;;;;;5051929;28;20084;-62
2022/02/08 04:41:09;;;;;;;;;;;6.80;95.10;;;;;;5046659;28;20117;-63
2022/02/08 04:43:46;;;;;;;11.80;2.88;;;6.80;95.10;;;;;;5036779;28;19913;-62
2022/02/08 04:48:54;;;;;;;9.23;2.78;;;6.80;95.00;;;;;;5051259;28;20032;-62
2022/02/08 04:51:26;;;;;;;7.82;2.90;;;6.80;95.00;;;;;;5044194;28;20088;-63
2022/02/08 04:54:00;;;;;;;11.40;2.50;;;6.80;95.00;;;;;;5038635;28;20029;-62
2022/02/08 04:59:20;;;;;;;8.05;2.67;;;6.80;94.90;;;;;;5040160;28;20021;-62
2022/02/08 05:29:48;;;;;;;10.35;2.60;;;6.90;94.70;;;;;;5039493;28;20090;-62
2022/02/08 05:34:52;;;;;;;8.85;3.08;;;6.90;94.80;;;;;;5043151;28;20028;-63
2022/02/08 05:37:37;;;;;;;6.45;2.08;;;6.90;94.80;;;;;;5050529;28;20087;-63
2022/02/08 05:43:17;;;;;;;8.68;2.78;;;6.90;94.80;;;;;;4979788;28;20121;-63
2022/02/08 05:48:25;;;;;;;9.25;2.72;;;7.00;94.70;;;;;;5024862;28;20881;-64
2022/02/08 05:51:07;;;;;;;10.32;3.45;;;7.00;94.60;;;;;;5036126;28;20060;-63
2022/02/08 05:53:42;;;;;;;10.63;2.78;;;7.00;94.60;;;;;;5034708;28;20427;-64
2022/02/08 05:56:16;;;;;;;6.88;2.78;;;7.10;94.50;;;;;;5051748;28;20063;-64
2022/02/08 05:58:45;;;;;;;11.97;3.43;;;7.10;94.50;;;;;;5041988;28;20935;-64
2022/02/08 06:01:12;;;;;;;12.80;3.40;;;7.10;94.40;;;;;;5039001;28;20025;-63
2022/02/08 06:03:37;;;;;;;10.55;3.53;;;7.10;94.40;;;;;;5032329;28;20068;-63
2022/02/08 06:06:03;;;;;;;7.85;3.30;;;7.10;94.30;;;;;;5048735;28;20034;-63
2022/02/08 06:08:28;;;;;;;11.85;3.55;;;7.10;94.30;;;;;;5049242;28;20029;-63
2022/02/08 06:11:00;;;;;;;9.43;3.75;;;7.10;94.30;;;;;;5050577;28;20020;-63
2022/02/08 06:13:26;;;;;;;13.05;5.03;;;7.10;94.40;;;;;;5048924;28;20035;-63
2022/02/08 06:15:59;;;;;;;6.03;3.42;;;7.10;94.50;;;;;;5034581;28;20120;-63
2022/02/08 06:18:28;;;;;;;10.20;3.97;;;7.10;94.60;;;;;;5034677;28;20393;-63
2022/02/08 06:20:54;;;;;;;9.77;3.67;;;7.10;94.60;;;;;;5031564;28;20033;-62
2022/02/08 06:23:20;;;;;;;12.32;4.20;;;7.10;94.60;;;;;;5033185;28;20365;-62
2022/02/08 06:25:45;;;;;;;10.20;4.38;;;7.10;94.70;;;;;;5050319;28;20041;-62
2022/02/08 06:28:12;;;;;;;10.55;4.15;;;7.10;94.70;;;;;;5048676;28;20055;-62
2022/02/08 06:30:38;;;;;;;10.32;4.20;;;7.10;94.90;;;;;;5047737;28;20111;-63
2022/02/08 06:33:04;;;;;;;10.45;4.78;;;7.10;94.80;;;;;;5031428;28;20105;-62
2022/02/08 06:35:31;;;;;;;15.48;4.60;;;7.10;94.80;;;;;;5030761;28;20465;-62
2022/02/08 06:37:59;;;;;;;12.55;5.45;;;7.20;94.90;;;;;;5049070;28;20099;-61
2022/02/08 06:40:25;;;;;;;12.35;4.93;;;7.20;94.80;;;;;;5050995;28;20017;-61
2022/02/08 06:42:50;;;;;;;15.20;4.20;;;7.20;94.80;;;;;;5044980;28;20022;-61
2022/02/08 06:45:17;;;;;;;10.65;5.20;;;7.20;94.80;;;;;;5035706;28;20369;-61
2022/02/08 06:47:44;;;;;;;13.93;4.75;;;7.20;94.80;;;;;;5034414;28;20041;-61
2022/02/08 06:50:11;;;;;;;19.90;5.88;;;7.30;94.80;;;;;;5047026;28;20033;-61
2022/02/08 06:52:36;;;;;;;14.40;5.93;;;7.30;94.80;;;;;;5030673;28;20080;-61
2022/02/08 06:55:04;;;;;;;14.25;5.65;;;7.20;94.80;;;;;;5031354;28;20029;-61
2022/02/08 06:57:36;;;;;;;14.35;5.93;;;7.30;94.90;;;;;;5030925;28;20504;-63
2022/02/08 07:00:04;;;;;;;10.02;4.88;;;7.30;94.80;;;;;;5047276;28;20091;-63
2022/02/08 07:02:30;;;;;;;11.18;5.38;;;7.30;94.80;;;;;;5050367;28;20523;-62
2022/02/08 07:04:55;;;;;;;12.30;5.25;;;7.30;94.80;;;;;;5033107;28;20136;-62
2022/02/08 07:07:21;;;;;;;11.85;5.68;;;7.30;94.80;;;;;;5033326;28;20026;-62
2022/02/08 07:09:46;;;;;;;13.13;5.63;;;7.40;94.80;;;;;;5035045;28;20030;-61
2022/02/08 07:12:12;;;;;;;16.42;5.85;;;7.40;94.80;;;;;;5034924;28;20048;-61
2022/02/08 07:14:39;;;;;;;16.55;6.35;;;7.40;94.80;;;;;;5034855;28;20029;-61
2022/02/08 07:17:05;;;;;;;15.05;5.57;;;7.40;94.70;;;;;;5034592;28;20037;-61
2022/02/08 07:19:30;;;;;;;11.00;5.60;;;7.40;94.70;;;;;;5034241;28;20024;-61
2022/02/08 07:21:56;;;;;;;10.82;5.25;;;7.50;94.80;;;;;;5035533;28;20025;-61
2022/02/08 07:24:21;;;;;;;14.13;6.00;;;7.50;94.80;;;;;;5042725;28;20048;-61
2022/02/08 07:26:50;;;;;;;14.00;5.00;;;7.50;94.80;;;;;;5051134;28;20039;-61
2022/02/08 07:29:17;;;;;;;20.15;7.93;;;7.60;95.00;;;;;;5042830;28;20036;-62
2022/02/08 07:31:56;;;;;;;24.27;11.75;;;7.60;95.10;;;;;;5052856;28;20400;-62
2022/02/08 07:34:29;;;;;;;21.13;11.07;;;7.70;95.20;;;;;;5043982;28;20079;-62
2022/02/08 07:37:14;;;;;;;15.07;7.80;;;7.70;95.20;;;;;;5051742;28;20357;-62
2022/02/08 07:39:45;;;;;;;13.45;5.43;;;7.70;95.40;;;;;;5051577;28;20025;-62
2022/02/08 07:42:10;;;;;;;15.10;5.47;;;7.80;95.50;;;;;;5034129;28;20038;-62
2022/02/08 07:44:36;;;;;;;11.45;5.45;;;7.80;95.60;;;;;;5045270;28;20035;-62
2022/02/08 07:47:02;;;;;;;14.13;5.65;;;7.80;95.70;;;;;;5050672;28;20506;-62
2022/02/08 07:49:27;;;;;;;12.27;5.82;;;7.80;95.80;;;;;;5038655;28;20028;-62
2022/02/08 07:51:53;;;;;;;10.13;5.18;;;7.80;95.90;;;;;;5044222;28;20033;-62
2022/02/08 07:54:19;;;;;;;13.98;5.68;;;7.80;95.90;;;;;;5040472;28;20032;-63
2022/02/08 07:56:44;;;;;;;14.55;5.65;;;7.80;96.00;;;;;;5030884;28;20055;-62
2022/02/08 07:59:10;;;;;;;10.20;5.40;;;7.80;96.00;;;;;;5042261;28;20060;-63
2022/02/08 08:01:35;;;;;;;10.80;5.97;;;7.80;96.10;;;;;;5051627;28;20116;-62
2022/02/08 08:04:01;;;;;;;12.57;5.80;;;7.80;96.20;;;;;;5042123;28;20503;-62
2022/02/08 08:06:26;;;;;;;12.23;5.47;;;7.70;96.30;;;;;;5034316;28;20037;-63
2022/02/08 08:08:52;;;;;;;9.45;4.80;;;7.80;96.40;;;;;;5050642;28;20384;-63
2022/02/08 08:11:21;;;;;;;9.57;5.03;;;7.80;96.40;;;;;;5034757;28;20034;-63
2022/02/08 08:13:51;;;;;;;14.32;5.50;;;7.80;96.50;;;;;;5047337;28;20027;-63
2022/02/08 08:19:04;;;;;;;13.30;5.10;;;7.80;96.70;;;;;;5044758;28;20024;-63
2022/02/08 08:21:31;;;;;;;13.73;5.93;;;7.80;96.70;;;;;;5049628;28;20079;-63
2022/02/08 08:23:57;;;;;;;11.10;4.88;;;7.80;96.80;;;;;;5050678;28;20056;-62
2022/02/08 08:26:23;;;;;;;9.32;4.60;;;7.80;96.90;;;;;;5035668;28;20069;-63
2022/02/08 08:28:49;;;;;;;15.80;5.72;;;7.80;96.90;;;;;;5039873;28;20080;-63
2022/02/08 08:31:15;;;;;;;14.23;5.63;;;7.70;97.00;;;;;;5051915;28;20028;-63
2022/02/08 08:33:41;;;;;;;11.82;5.68;;;7.70;97.10;;;;;;5049894;28;20009;-63
2022/02/08 08:36:08;;;;;;;11.05;5.30;;;7.70;97.10;;;;;;5051865;28;20082;-63
2022/02/08 08:38:34;;;;;;;10.57;5.45;;;7.80;97.20;;;;;;5042462;28;20078;-63
2022/02/08 08:41:19;;;;;;;9.40;5.00;;;7.80;97.30;;;;;;5052170;28;20033;-63
2022/02/08 08:49:21;;;;;;;9.77;5.18;;;7.80;97.40;;;;;;5050522;28;20086;-63
2022/02/08 08:51:53;;;;;;;10.25;5.03;;;7.80;97.60;;;;;;5038571;28;20025;-63
2022/02/08 08:54:20;;;;;;;13.30;5.03;;;7.70;97.60;;;;;;5048567;28;20108;-62
2022/02/08 08:56:46;;;;;;;10.00;4.97;;;7.80;97.70;;;;;;5051167;28;20064;-62
2022/02/08 08:59:14;;;;;;;13.75;5.30;;;7.80;97.80;;;;;;5049060;28;20037;-63
2022/02/08 09:01:40;;;;;;;11.70;5.80;;;7.80;97.90;;;;;;5033505;28;20025;-63
2022/02/08 09:04:06;;;;;;;9.75;4.57;;;7.90;97.90;;;;;;5042125;28;20103;-62
2022/02/08 09:06:36;;;;;;;11.85;6.15;;;7.80;98.00;;;;;;5062038;28;20119;-63
2022/02/08 09:09:06;;;;;;;10.57;5.00;;;7.90;98.00;;;;;;5052312;28;20472;-63
2022/02/08 09:17:05;;;;;;;9.32;4.82;;;8.00;98.10;;;;;;5010191;28;20056;-62
2022/02/08 09:20:14;;;;;;;9.35;4.78;;;8.00;98.30;;;;;;5040758;28;20044;-62
2022/02/08 09:22:31;;;;;;;10.85;5.40;;;8.10;98.20;;;;;;5040154;28;20043;-61
2022/02/08 09:25:26;;;;;;;9.07;4.88;;;8.10;98.20;;;;;;5039165;28;20046;-62
2022/02/08 09:27:57;;;;;;;9.20;4.88;;;8.10;98.20;;;;;;5038501;28;20065;-61
2022/02/08 09:30:34;;;;;;;12.48;5.28;;;8.10;98.30;;;;;;5039423;28;20304;-62
2022/02/08 09:33:00;;;;;;;10.05;5.30;;;8.20;98.30;;;;;;5044101;28;20033;-62
2022/02/08 09:35:25;;;;;;;9.57;4.88;;;8.30;98.40;;;;;;5038649;28;20120;-62
2022/02/08 09:37:51;;;;;;;7.47;4.57;;;8.30;98.40;;;;;;5042670;28;20079;-62
2022/02/08 09:40:19;;;;;;;11.38;5.25;;;8.40;98.40;;;;;;5038806;28;20029;-62
2022/02/08 09:42:46;;;;;;;9.95;5.75;;;8.50;98.40;;;;;;5033900;28;20025;-62
2022/02/08 09:45:16;;;;;;;10.77;5.32;;;8.50;98.40;;;;;;5034698;28;20496;-63
2022/02/08 09:48:03;;;;;;;9.32;4.45;;;8.50;98.40;;;;;;5038644;28;20043;-62
2022/02/08 09:50:32;;;;;;;11.43;4.82;;;8.50;98.50;;;;;;5034258;28;20025;-61
2022/02/08 09:53:01;;;;;;;11.50;4.78;;;8.60;98.40;;;;;;5034837;28;20045;-62
2022/02/08 09:55:36;;;;;;;9.32;5.18;;;8.60;98.50;;;;;;5040742;28;20528;-62
2022/02/08 09:58:02;;;;;;;8.48;5.40;;;8.60;98.50;;;;;;5034501;28;20036;-60
2022/02/08 10:00:28;;;;;;;10.32;5.00;;;8.70;98.50;;;;;;5041345;28;20036;-60
2022/02/08 10:03:11;;;;;;;9.18;5.20;;;8.70;98.50;;;;;;5038270;28;20021;-61
2022/02/08 10:05:53;;;;;;;10.45;5.03;;;8.70;98.50;;;;;;5035982;28;20041;-62
2022/02/08 10:08:19;;;;;;;7.97;4.75;;;8.80;98.50;;;;;;5036628;28;20078;-60
2022/02/08 10:10:44;;;;;;;9.40;4.60;;;8.80;98.50;;;;;;5037987;28;20033;-61
2022/02/08 10:13:31;;;;;;;11.70;5.30;;;8.80;98.50;;;;;;5035083;28;20025;-62
2022/02/08 10:21:45;;;;;;;8.75;4.63;;;8.90;98.50;;;;;;5033369;28;20033;-63
2022/02/08 10:24:14;;;;;;;8.35;4.70;;;8.90;98.60;;;;;;5034120;28;20662;-62
2022/02/08 10:29:24;;;;;;;11.05;4.63;;;9.00;98.60;;;;;;5037006;28;20025;-64
2022/02/08 10:40:07;;;;;;;8.10;4.45;;;9.10;98.60;;;;;;5039361;28;20033;-62
2022/02/08 10:42:34;;;;;;;9.27;4.65;;;9.10;98.70;;;;;;5034088;28;20028;-61
2022/02/08 10:45:00;;;;;;;9.10;4.45;;;9.10;98.70;;;;;;5038678;28;20021;-62
2022/02/08 10:47:37;;;;;;;9.15;5.10;;;9.10;98.70;;;;;;5037106;28;20036;-61
2022/02/08 10:50:06;;;;;;;6.97;4.20;;;9.20;98.80;;;;;;5039146;28;20087;-61
2022/02/08 10:52:32;;;;;;;10.25;4.75;;;9.20;98.80;;;;;;5036831;28;20033;-62
2022/02/08 10:55:04;;;;;;;10.43;4.65;;;9.20;98.80;;;;;;5016816;28;20396;-63
2022/02/08 10:57:39;;;;;;;9.07;4.82;;;9.30;98.80;;;;;;5037648;28;20034;-61
2022/02/08 11:00:06;;;;;;;11.52;4.93;;;9.30;98.80;;;;;;5034126;28;20476;-62
2022/02/08 11:02:45;;;;;;;10.02;4.50;;;9.30;98.80;;;;;;5041328;28;20017;-62
2022/02/08 11:05:22;;;;;;;10.75;5.35;;;9.30;98.80;;;;;;5030903;28;20054;-62
2022/02/08 11:08:13;;;;;;;8.02;5.00;;;9.30;98.70;;;;;;5038119;28;20071;-62
2022/02/08 11:16:08;;;;;;;9.40;4.85;;;9.40;98.80;;;;;;5035037;28;20474;-63
2022/02/08 11:18:59;;;;;;;11.60;5.05;;;9.40;98.80;;;;;;5035172;28;20130;-62
2022/02/08 11:21:44;;;;;;;10.73;5.07;;;9.50;98.80;;;;;;5035791;28;20473;-62
2022/02/08 11:24:25;;;;;;;8.77;4.93;;;9.50;98.70;;;;;;5035925;28;20064;-62
2022/02/08 11:26:56;;;;;;;7.63;4.57;;;9.50;98.70;;;;;;5039163;28;20693;-61
2022/02/08 11:29:30;;;;;;;8.85;5.57;;;9.50;98.70;;;;;;5036085;28;20037;-61
2022/02/08 11:32:19;;;;;;;13.05;5.45;;;9.50;98.70;;;;;;5036943;28;20032;-62
2022/02/08 11:51:49;;;;;;;13.68;6.50;;;9.60;98.70;;;;;;5036553;28;20028;-62
2022/02/08 11:54:38;;;;;;;12.02;6.55;;;9.60;98.80;;;;;;5035493;28;20049;-62
2022/02/08 11:59:53;;;;;;;12.25;7.25;;;9.60;98.80;;;;;;5044122;28;20448;-61
2022/02/08 12:05:24;;;;;;;13.52;7.43;;;9.70;98.90;;;;;;5038503;28;20635;-63
2022/02/08 12:07:53;;;;;;;;;;;9.70;98.90;;;;;;5041448;28;20075;-61
2022/02/08 12:10:25;;;;;;;12.90;7.18;;;9.70;98.80;;;;;;5044404;28;19920;-61
2022/02/08 12:28:07;;;;;;;14.68;8.15;;;9.90;99.20;;;;;;5039445;28;20065;-62
2022/02/08 12:32:39;;;;;;;15.27;7.72;;;10.10;99.30;;;;;;5034163;28;20044;-61
2022/02/08 12:49:57;;;;;;;16.55;8.18;;;10.20;99.40;;;;;;5033870;28;20025;-61
2022/02/08 12:57:49;;;;;;;14.57;7.32;;;10.30;99.50;;;;;;5040746;28;20074;-61
2022/02/08 13:03:23;;;;;;;11.38;7.20;;;10.30;99.50;;;;;;5035872;28;20025;-62
2022/02/08 13:15:22;;;;;;;13.63;8.43;;;10.50;99.50;;;;;;5038533;28;20148;-62
2022/02/08 14:04:15;;;;;;;11.98;7.18;;;10.80;99.90;;;;;;5006396;28;20061;-61
2022/02/08 14:06:53;;;;;;;14.07;7.22;;;10.80;99.90;;;;;;5044327;28;20041;-62
2022/02/08 14:09:35;;;;;;;14.32;7.70;;;10.80;99.90;;;;;;5043508;28;20036;-62
2022/02/08 14:17:30;;;;;;;11.45;7.43;;;10.80;99.90;;;;;;5037780;28;20162;-62
2022/02/08 14:23:07;;;;;;;12.65;7.57;;;10.80;99.90;;;;;;5026833;28;20099;-63
2022/02/08 14:25:47;;;;;;;12.45;7.88;;;10.90;99.90;;;;;;5044182;28;20040;-62
2022/02/08 14:36:30;;;;;;;11.60;7.97;;;10.80;99.90;;;;;;5038085;28;20033;-63
2022/02/08 14:57:33;;;;;;;12.88;7.13;;;10.80;99.90;;;;;;5046717;28;20456;-62
2022/02/08 15:09:00;;;;;;;10.67;6.53;;;10.90;99.90;;;;;;5041021;28;20086;-63
2022/02/08 15:11:33;;;;;;;13.48;7.10;;;10.80;99.90;;;;;;5031430;28;20029;-62
2022/02/08 15:14:00;;;;;;;10.98;6.65;;;10.90;99.90;;;;;;5045083;28;20034;-63
2022/02/08 15:16:34;;;;;;;9.05;6.50;;;10.90;99.90;;;;;;5048175;28;20037;-64
2022/02/08 15:19:00;;;;;;;12.00;6.47;;;10.90;99.90;;;;;;5037087;28;20030;-63
2022/02/08 15:21:27;;;;;;;11.82;6.07;;;11.00;99.90;;;;;;5041659;28;20036;-63
2022/02/08 15:23:53;;;;;;;9.07;6.20;;;11.00;99.90;;;;;;5032111;28;20030;-64
2022/02/08 15:26:19;;;;;;;11.43;6.60;;;11.00;99.90;;;;;;5030224;28;20095;-64
2022/02/08 15:28:45;;;;;;;12.25;7.72;;;11.00;99.90;;;;;;5031686;28;20033;-64
2022/02/08 15:31:12;;;;;;;11.60;7.38;;;11.00;99.90;;;;;;5031624;28;20033;-63
2022/02/08 15:33:37;;;;;;;10.82;6.63;;;11.00;99.90;;;;;;5031658;28;20029;-63
2022/02/08 15:36:03;;;;;;;10.15;6.22;;;11.10;99.90;;;;;;5032908;28;20094;-63
2022/02/08 15:38:32;;;;;;;9.75;5.72;;;11.10;99.90;;;;;;5031984;28;20410;-63
2022/02/08 15:41:00;;;;;;;10.32;6.47;;;11.00;99.90;;;;;;5030780;28;20090;-63
2022/02/08 15:43:26;;;;;;;10.50;6.55;;;11.10;99.90;;;;;;5033081;28;20617;-63
2022/02/08 15:46:05;;;;;;;9.93;5.80;;;11.10;99.90;;;;;;5030716;28;20076;-63
2022/02/08 15:48:33;;;;;;;8.32;6.25;;;11.10;99.90;;;;;;5032244;28;20028;-63
2022/02/08 15:51:13;;;;;;;11.50;6.63;;;11.10;99.90;;;;;;5032412;28;20037;-63
2022/02/08 15:56:37;;;;;;;8.50;6.10;;;11.10;99.90;;;;;;5032736;28;20127;-63
2022/02/08 16:09:40;;;;;;;10.15;7.85;;;11.10;99.90;;;;;;5031191;28;20025;-63
2022/02/08 16:12:34;;;;;;;11.52;6.78;;;11.10;99.90;;;;;;5030279;28;20025;-63
2022/02/08 16:15:24;;;;;;;11.05;6.60;;;11.10;99.90;;;;;;5032565;28;20038;-63
2022/02/08 16:18:01;;;;;;;11.05;6.35;;;11.10;99.90;;;;;;5031997;28;20033;-62
2022/02/08 16:20:39;;;;;;;9.45;6.18;;;11.00;99.90;;;;;;5023782;28;20031;-62
2022/02/08 16:23:35;;;;;;;11.85;7.10;;;11.10;99.90;;;;;;5031802;28;20040;-63
2022/02/08 16:26:17;;;;;;;10.82;6.80;;;11.10;99.90;;;;;;5026825;28;20094;-62
2022/02/08 16:28:59;;;;;;;10.55;6.97;;;11.00;99.90;;;;;;5030230;28;20077;-63
2022/02/08 16:32:02;;;;;;;10.02;6.63;;;11.10;99.90;;;;;;5030753;28;20064;-62
2022/02/08 16:49:01;;;;;;;10.60;6.38;;;11.00;99.90;;;;;;5030910;28;20138;-64
2022/02/08 16:53:40;;;;;;;10.90;7.50;;;11.00;99.90;;;;;;5031892;28;20615;-63
2022/02/08 16:56:21;;;;;;;12.82;6.68;;;11.00;99.90;;;;;;5030677;28;20025;-63
2022/02/08 16:58:55;;;;;;;8.90;6.35;;;11.00;99.90;;;;;;5018977;28;20452;-63
2022/02/08 17:01:28;;;;;;;10.77;6.40;;;11.00;99.90;;;;;;5029135;28;20021;-63
2022/02/08 17:03:54;;;;;;;12.85;6.38;;;11.00;99.90;;;;;;5030337;28;20643;-63
2022/02/08 17:06:24;;;;;;;7.75;5.85;;;11.00;99.90;;;;;;5028036;28;20041;-63
2022/02/08 17:09:14;;;;;;;9.07;5.80;;;11.00;99.90;;;;;;5020869;28;20025;-63
2022/02/08 17:11:46;;;;;;;8.60;6.18;;;11.00;99.90;;;;;;5028754;28;20551;-63
2022/02/08 17:37:22;;;;;;;9.70;6.57;;;10.90;99.90;;;;;;5031850;28;20049;-62
2022/02/08 17:49:36;;;;;;;8.45;6.07;;;10.90;99.90;;;;;;5032388;28;20086;-62
2022/02/08 17:52:01;;;;;;;9.32;6.75;;;10.90;99.90;;;;;;5041503;28;20476;-62
2022/02/08 17:54:27;;;;;;;11.82;7.38;;;10.90;99.90;;;;;;5037228;28;20021;-62
2022/02/08 17:56:54;;;;;;;8.40;6.80;;;10.90;99.90;;;;;;5034560;28;20112;-62
2022/02/08 17:59:24;;;;;;;10.45;7.22;;;10.90;99.90;;;;;;5040254;28;20033;-62
2022/02/08 18:01:50;;;;;;;12.35;7.25;;;10.90;99.90;;;;;;5031808;28;20396;-62
2022/02/08 18:04:16;;;;;;;9.50;6.63;;;10.90;99.90;;;;;;5042603;28;20755;-63
2022/02/08 18:06:42;;;;;;;9.13;6.72;;;10.90;99.90;;;;;;5023768;28;20079;-61
2022/02/08 18:09:07;;;;;;;9.77;6.90;;;10.90;99.90;;;;;;5038173;28;20052;-63
2022/02/08 18:11:36;;;;;;;9.63;6.70;;;11.00;99.90;;;;;;5038897;28;20086;-62
2022/02/08 18:14:02;;;;;;;11.30;8.80;;;10.90;99.90;;;;;;5035420;28;20392;-61
2022/02/08 18:16:33;;;;;;;9.55;6.88;;;10.90;99.90;;;;;;5037140;28;20086;-63
2022/02/08 18:19:03;;;;;;;10.05;7.03;;;11.00;99.90;;;;;;5039871;28;20055;-62
2022/02/08 18:21:34;;;;;;;10.52;6.97;;;11.00;99.90;;;;;;5038806;28;20507;-61
2022/02/08 18:53:26;;;;;;;10.80;7.82;;;11.00;99.90;;;;;;5037924;28;20029;-62
2022/02/08 18:55:42;;;;;;;10.55;7.57;;;11.00;99.90;;;;;;5041029;28;20115;-62
2022/02/08 19:07:48;;;;;;;10.05;7.43;;;10.90;99.90;;;;;;5040663;28;20061;-62
2022/02/08 19:20:32;;;;;;;16.33;9.10;;;11.00;99.90;;;;;;5037084;28;20097;-61
2022/02/08 19:22:58;;;;;;;14.70;9.60;;;11.00;99.90;;;;;;5035958;28;20034;-61
2022/02/08 19:25:23;;;;;;;15.25;9.82;;;11.00;99.90;;;;;;5037134;28;20506;-61
2022/02/08 19:27:50;;;;;;;13.90;9.80;;;11.00;99.90;;;;;;5040877;28;20037;-62
2022/02/08 19:30:16;;;;;;;14.25;9.82;;;11.00;99.90;;;;;;5041655;28;20036;-62
2022/02/08 19:32:42;;;;;;;14.48;9.73;;;11.00;99.90;;;;;;5038147;28;20036;-62
2022/02/08 19:35:11;;;;;;;12.20;8.25;;;11.00;99.90;;;;;;5044375;28;20037;-61